»·PEaware :: N604S 74S-65S

N604S :: 74S-65S

FLIGHT INFORMATION

Flight Status: Arrived
Operator: Privately registered:
United States
More flights under this callsign
Pilot: Luis Carlos C. (28559)
Aircraft: Unknown
(L35)
More flights by this aircraft type
Origin: 74S Anacortes
United States
Destination: 65S Boundary Co
United States
More flights between these airports :: More routes between these airports
Route: +WOBED Q140 CORDU
File this flight plan on PilotEdge
Remarks:
Altitude:
(Current/Filed)
35,000ft
Speed:
(Current/Filed)
300kts
Departed: 03-Apr-20 03:44 PM
Arrived: 03-Apr-20 04:33 PM
Distance/Time
Traveled:
253nm/0:48
Distance/Time
To Go:
Arrived

Flight Plot

Page will automatically refresh every two minutes.

Flight plan parsing failed; only flown route is shown


Map Options




Map Legend


Flown Route
Filed Route
Departure Airport
Arrival Airport
Navaid (VOR, NDB)
Fix

Horizontal Profiles

Position Reports

Time Latitude Longitude Heading Altitude Ground
Speed
03-Apr-20 15:19 48.497897 -122.660842 198 247ft 0kts
03-Apr-20 15:20 48.497897 -122.660842 198 247ft 0kts
03-Apr-20 15:21 48.497897 -122.660842 198 247ft 0kts
03-Apr-20 15:23 48.497897 -122.660842 198 247ft 0kts
03-Apr-20 15:24 48.497897 -122.660842 198 247ft 0kts
03-Apr-20 15:25 48.497897 -122.660842 198 247ft 0kts
03-Apr-20 15:26 48.497897 -122.660842 198 247ft 0kts
03-Apr-20 15:27 48.497897 -122.660842 198 247ft 0kts
03-Apr-20 15:28 48.497897 -122.660842 198 247ft 0kts
03-Apr-20 15:29 48.497897 -122.660842 198 247ft 0kts
03-Apr-20 15:30 48.497897 -122.660842 198 247ft 0kts
03-Apr-20 15:31 48.497897 -122.660842 198 247ft 0kts
03-Apr-20 15:32 48.497897 -122.660842 198 247ft 0kts
03-Apr-20 15:33 48.497897 -122.660842 198 247ft 0kts
03-Apr-20 15:34 48.497897 -122.660842 198 247ft 0kts
03-Apr-20 15:35 48.497897 -122.660842 198 247ft 0kts
03-Apr-20 15:36 48.497897 -122.660842 198 247ft 0kts
03-Apr-20 15:37 48.497897 -122.660842 198 247ft 0kts
03-Apr-20 15:38 48.497897 -122.660842 198 247ft 0kts
03-Apr-20 15:39 48.498090 -122.661125 354 247ft 6kts
03-Apr-20 15:40 48.497521 -122.662342 200 248ft 7kts
03-Apr-20 15:41 48.494725 -122.663876 200 247ft 2kts
03-Apr-20 15:41 48.494704 -122.664513 335 247ft 2kts
03-Apr-20 15:43 48.494791 -122.664498 21 247ft 0kts
03-Apr-20 15:44 48.498743 -122.662340 20 248ft 115kts
03-Apr-20 15:44 48.533636 -122.641386 21 2904ft 176kts
03-Apr-20 15:45 48.581706 -122.614002 357 5214ft 161kts
03-Apr-20 15:46 48.632634 -122.611802 5 7922ft 195kts
03-Apr-20 15:48 48.640612 -122.536289 130 11466ft 228kts
03-Apr-20 15:48 48.604344 -122.473102 129 14169ft 245kts
03-Apr-20 15:49 48.570805 -122.383739 87 16993ft 251kts
03-Apr-20 15:50 48.567835 -122.274732 87 20059ft 269kts
03-Apr-20 15:51 48.563205 -122.155440 88 22948ft 303kts
03-Apr-20 15:52 48.557739 -122.025615 88 25980ft 316kts
03-Apr-20 15:53 48.551966 -121.890441 89 28537ft 328kts
03-Apr-20 15:54 48.545912 -121.752762 89 30980ft 327kts
03-Apr-20 15:55 48.539778 -121.617031 89 33087ft 322kts
03-Apr-20 15:56 48.533541 -121.482110 89 34782ft 320kts
03-Apr-20 15:57 48.527223 -121.348195 88 36135ft 320kts
03-Apr-20 15:58 48.520477 -121.207242 89 36560ft 353kts
03-Apr-20 15:59 48.512890 -121.055563 89 37283ft 375kts
03-Apr-20 16:00 48.504618 -120.894336 89 37997ft 394kts
03-Apr-20 16:01 48.495748 -120.726457 89 38705ft 410kts
03-Apr-20 16:02 48.486246 -120.551562 89 39415ft 424kts
03-Apr-20 16:03 48.476239 -120.372428 89 40119ft 434kts
03-Apr-20 16:04 48.465414 -120.189740 89 40823ft 441kts
03-Apr-20 16:05 48.454757 -120.004845 89 41524ft 445kts
03-Apr-20 16:06 48.443532 -119.819011 89 42222ft 447kts
03-Apr-20 16:07 48.431901 -119.632469 89 42912ft 446kts
03-Apr-20 16:08 48.419534 -119.445018 90 43113ft 459kts
03-Apr-20 16:09 48.404718 -119.250100 90 43112ft 474kts
03-Apr-20 16:10 48.389367 -119.050594 90 43112ft 487kts
03-Apr-20 16:11 48.373291 -118.845720 90 43113ft 496kts
03-Apr-20 16:12 48.357157 -118.646544 90 43102ft 473kts
03-Apr-20 16:13 48.341095 -118.449515 90 43103ft 476kts
03-Apr-20 16:14 48.324573 -118.251955 90 43104ft 479kts
03-Apr-20 16:15 48.307535 -118.052802 90 43107ft 482kts
03-Apr-20 16:16 48.290027 -117.852363 90 43106ft 485kts
03-Apr-20 16:17 48.272020 -117.650355 90 43105ft 487kts
03-Apr-20 16:18 48.253695 -117.448897 90 43105ft 489kts
03-Apr-20 16:19 48.235242 -117.253456 89 42396ft 439kts
03-Apr-20 16:20 48.218135 -117.069500 90 37565ft 452kts
03-Apr-20 16:21 48.200144 -116.881183 90 31415ft 466kts
03-Apr-20 16:22 48.191186 -116.692269 64 24952ft 420kts
03-Apr-20 16:23 48.263390 -116.597796 4 19103ft 324kts
03-Apr-20 16:24 48.347650 -116.572975 19 13637ft 315kts
03-Apr-20 16:25 48.410421 -116.527223 21 10486ft 276kts
03-Apr-20 16:26 48.469187 -116.484225 22 9485ft 212kts
03-Apr-20 16:27 48.521443 -116.446079 23 7994ft 212kts
03-Apr-20 16:28 48.573502 -116.408236 23 6766ft 204kts
03-Apr-20 16:29 48.625014 -116.373885 18 5884ft 199kts
03-Apr-20 16:30 48.676550 -116.347801 23 4062ft 177kts
03-Apr-20 16:31 48.711172 -116.312699 36 2722ft 144kts
03-Apr-20 16:32 48.726908 -116.294099 40 2336ft 0kts
03-Apr-20 16:33 48.728592 -116.292260 328 2336ft 6kts
03-Apr-20 16:34 48.730457 -116.292035 37 2336ft 8kts
03-Apr-20 16:35 48.730497 -116.291987 38 2336ft 0kts
03-Apr-20 16:36 48.730497 -116.291987 38 2336ft 0kts
03-Apr-20 16:37 48.730497 -116.291987 38 2336ft 0kts
03-Apr-20 16:38 48.730497 -116.291987 38 2336ft 0kts
03-Apr-20 16:39 48.730497 -116.291987 38 2336ft 0kts
03-Apr-20 16:40 48.730497 -116.291987 38 2336ft 0kts
03-Apr-20 16:41 48.730497 -116.291987 38 2336ft 0kts

Navigation Log

Ident Type
Flight plan parsing failed, navigation log unavailable